sensor_id;sensor_type;location;lat;lon;timestamp;pressure;altitude;pressure_sealevel;temperature;humidity
21838;BME280;11081;45.946;6.140;2022-08-20T00:01:45;95463.31;;;19.46;87.74
21838;BME280;11081;45.946;6.140;2022-08-20T00:04:14;95460.94;;;19.44;88.08
21838;BME280;11081;45.946;6.140;2022-08-20T00:06:42;95457.78;;;19.42;88.05
21838;BME280;11081;45.946;6.140;2022-08-20T00:09:10;95457.22;;;19.45;88.04
21838;BME280;11081;45.946;6.140;2022-08-20T00:11:40;95459.34;;;19.48;88.00
21838;BME280;11081;45.946;6.140;2022-08-20T00:14:08;95456.97;;;19.47;87.83
21838;BME280;11081;45.946;6.140;2022-08-20T00:16:36;95456.16;;;19.46;88.01
21838;BME280;11081;45.946;6.140;2022-08-20T00:19:06;95449.00;;;19.47;88.26
21838;BME280;11081;45.946;6.140;2022-08-20T00:21:35;95436.06;;;19.45;88.29
21838;BME280;11081;45.946;6.140;2022-08-20T00:24:03;95431.84;;;19.39;88.46
21838;BME280;11081;45.946;6.140;2022-08-20T00:26:32;95431.84;;;19.39;88.34
21838;BME280;11081;45.946;6.140;2022-08-20T00:29:03;95441.88;;;19.42;89.10
21838;BME280;11081;45.946;6.140;2022-08-20T00:31:31;95433.94;;;19.42;88.99
21838;BME280;11081;45.946;6.140;2022-08-20T00:33:59;95440.31;;;19.41;89.45
21838;BME280;11081;45.946;6.140;2022-08-20T00:36:27;95440.84;;;19.38;89.21
21838;BME280;11081;45.946;6.140;2022-08-20T00:38:59;95440.34;;;19.11;90.95
21838;BME280;11081;45.946;6.140;2022-08-20T00:41:27;95438.53;;;18.96;92.37
21838;BME280;11081;45.946;6.140;2022-08-20T00:44:07;95441.94;;;18.92;93.13
21838;BME280;11081;45.946;6.140;2022-08-20T00:46:37;95444.59;;;18.97;92.98
21838;BME280;11081;45.946;6.140;2022-08-20T00:49:07;95439.28;;;19.12;92.12
21838;BME280;11081;45.946;6.140;2022-08-20T00:51:39;95433.47;;;19.20;91.00
21838;BME280;11081;45.946;6.140;2022-08-20T00:54:13;95415.47;;;19.22;89.80
21838;BME280;11081;45.946;6.140;2022-08-20T00:56:49;95420.75;;;19.22;89.76
21838;BME280;11081;45.946;6.140;2022-08-20T00:59:23;95418.91;;;19.17;89.29
21838;BME280;11081;45.946;6.140;2022-08-20T01:01:52;95412.84;;;19.17;89.27
21838;BME280;11081;45.946;6.140;2022-08-20T01:04:23;95412.84;;;19.17;88.76
21838;BME280;11081;45.946;6.140;2022-08-20T01:06:52;95421.84;;;19.16;88.64
21838;BME280;11081;45.946;6.140;2022-08-20T01:09:20;95422.34;;;19.13;88.06
21838;BME280;11081;45.946;6.140;2022-08-20T01:12:09;95426.56;;;19.14;88.10
21838;BME280;11081;45.946;6.140;2022-08-20T01:14:38;95433.44;;;19.15;87.51
21838;BME280;11081;45.946;6.140;2022-08-20T01:17:14;95427.13;;;19.16;87.64
21838;BME280;11081;45.946;6.140;2022-08-20T01:19:48;95429.50;;;19.17;87.02
21838;BME280;11081;45.946;6.140;2022-08-20T01:22:24;95432.94;;;19.18;87.20
21838;BME280;11081;45.946;6.140;2022-08-20T01:25:15;95434.50;;;19.14;87.74
21838;BME280;11081;45.946;6.140;2022-08-20T01:27:48;95435.06;;;19.01;88.52
21838;BME280;11081;45.946;6.140;2022-08-20T01:30:21;95439.81;;;18.94;88.88
21838;BME280;11081;45.946;6.140;2022-08-20T01:32:50;95451.47;;;18.98;89.11
21838;BME280;11081;45.946;6.140;2022-08-20T01:35:19;95443.53;;;19.03;88.52
21838;BME280;11081;45.946;6.140;2022-08-20T01:37:48;95436.66;;;19.02;88.47
21838;BME280;11081;45.946;6.140;2022-08-20T01:40:23;95432.69;;;18.99;88.20
21838;BME280;11081;45.946;6.140;2022-08-20T01:42:56;95433.50;;;19.00;88.09
21838;BME280;11081;45.946;6.140;2022-08-20T01:45:25;95433.50;;;19.00;88.14
21838;BME280;11081;45.946;6.140;2022-08-20T01:47:56;95428.72;;;19.02;88.06
21838;BME280;11081;45.946;6.140;2022-08-20T01:50:26;95427.13;;;19.06;88.16
21838;BME280;11081;45.946;6.140;2022-08-20T01:52:59;95427.13;;;19.06;88.29
21838;BME280;11081;45.946;6.140;2022-08-20T01:55:30;95429.50;;;19.07;88.38
21838;BME280;11081;45.946;6.140;2022-08-20T01:57:59;95416.25;;;19.12;88.19
21838;BME280;11081;45.946;6.140;2022-08-20T02:00:28;95420.75;;;19.12;88.07
21838;BME280;11081;45.946;6.140;2022-08-20T02:02:58;95415.72;;;19.15;88.06
21838;BME280;11081;45.946;6.140;2022-08-20T02:05:26;95420.22;;;19.15;88.25
21838;BME280;11081;45.946;6.140;2022-08-20T02:07:56;95416.53;;;19.16;88.32
21838;BME280;11081;45.946;6.140;2022-08-20T02:10:24;95412.84;;;19.17;88.29
21838;BME280;11081;45.946;6.140;2022-08-20T02:12:57;95421.28;;;19.19;88.46
21838;BME280;11081;45.946;6.140;2022-08-20T02:15:27;95421.31;;;18.73;90.93
21838;BME280;11081;45.946;6.140;2022-08-20T02:18:04;95414.41;;;18.42;93.27
21838;BME280;11081;45.946;6.140;2022-08-20T02:20:34;95415.97;;;18.27;93.70
21838;BME280;11081;45.946;6.140;2022-08-20T02:23:04;95421.81;;;18.35;93.48
21838;BME280;11081;45.946;6.140;2022-08-20T02:25:34;95411.75;;;18.52;93.05
21838;BME280;11081;45.946;6.140;2022-08-20T02:28:06;95424.50;;;18.70;92.25
21838;BME280;11081;45.946;6.140;2022-08-20T02:30:39;95424.50;;;18.85;91.44
21838;BME280;11081;45.946;6.140;2022-08-20T02:33:10;95421.06;;;18.95;90.49
21838;BME280;11081;45.946;6.140;2022-08-20T02:35:40;95421.84;;;19.01;90.14
21838;BME280;11081;45.946;6.140;2022-08-20T02:38:08;95418.66;;;19.04;89.98
21838;BME280;11081;45.946;6.140;2022-08-20T02:40:37;95426.34;;;19.05;90.09
21838;BME280;11081;45.946;6.140;2022-08-20T02:43:05;95414.97;;;19.05;89.74
21838;BME280;11081;45.946;6.140;2022-08-20T02:45:33;95416.56;;;19.01;89.42
21838;BME280;11081;45.946;6.140;2022-08-20T02:48:07;95410.19;;;19.02;89.23
21838;BME280;11081;45.946;6.140;2022-08-20T02:50:35;95413.38;;;19.04;88.79
21838;BME280;11081;45.946;6.140;2022-08-20T02:53:03;95408.63;;;19.01;88.67
21838;BME280;11081;45.946;6.140;2022-08-20T02:55:31;95404.91;;;19.02;88.60
21838;BME280;11081;45.946;6.140;2022-08-20T02:57:59;95402.25;;;19.07;88.32
21838;BME280;11081;45.946;6.140;2022-08-20T03:00:29;95405.41;;;19.09;88.44
21838;BME280;11081;45.946;6.140;2022-08-20T03:03:05;95407.00;;;19.10;88.05
21838;BME280;11081;45.946;6.140;2022-08-20T03:05:36;95408.06;;;19.09;88.06
21838;BME280;11081;45.946;6.140;2022-08-20T03:08:06;95406.47;;;19.13;88.21
21838;BME280;11081;45.946;6.140;2022-08-20T03:10:36;95408.03;;;19.14;88.36
21838;BME280;11081;45.946;6.140;2022-08-20T03:13:06;95413.88;;;19.11;89.15
21838;BME280;11081;45.946;6.140;2022-08-20T03:15:39;95408.63;;;18.85;90.30
21838;BME280;11081;45.946;6.140;2022-08-20T03:18:08;95418.69;;;18.63;91.57
21838;BME280;11081;45.946;6.140;2022-08-20T03:20:38;95412.84;;;18.56;91.88
21838;BME280;11081;45.946;6.140;2022-08-20T03:23:06;95417.88;;;18.68;91.76
21838;BME280;11081;45.946;6.140;2022-08-20T03:25:34;95412.31;;;18.84;90.84
21838;BME280;11081;45.946;6.140;2022-08-20T03:28:03;95413.38;;;18.94;89.94
21838;BME280;11081;45.946;6.140;2022-08-20T03:30:31;95405.97;;;18.96;89.75
21838;BME280;11081;45.946;6.140;2022-08-20T03:33:00;95407.03;;;19.00;89.36
21838;BME280;11081;45.946;6.140;2022-08-20T03:35:29;95411.28;;;18.96;88.88
21838;BME280;11081;45.946;6.140;2022-08-20T03:37:58;95404.41;;;18.84;89.28
21838;BME280;11081;45.946;6.140;2022-08-20T03:40:30;95410.75;;;18.83;89.30
21838;BME280;11081;45.946;6.140;2022-08-20T03:42:59;95405.19;;;18.85;89.54
21838;BME280;11081;45.946;6.140;2022-08-20T03:45:28;95411.25;;;18.91;89.17
21838;BME280;11081;45.946;6.140;2022-08-20T03:47:58;95408.63;;;18.91;89.30
21838;BME280;11081;45.946;6.140;2022-08-20T03:50:29;95412.84;;;18.86;89.90
21838;BME280;11081;45.946;6.140;2022-08-20T03:52:59;95413.91;;;18.70;90.43
21838;BME280;11081;45.946;6.140;2022-08-20T03:55:29;95413.91;;;18.70;90.82
21838;BME280;11081;45.946;6.140;2022-08-20T03:58:00;95413.94;;;18.80;90.45
21838;BME280;11081;45.946;6.140;2022-08-20T04:00:31;95414.44;;;18.87;89.56
21838;BME280;11081;45.946;6.140;2022-08-20T04:03:01;95412.84;;;18.97;89.48
21838;BME280;11081;45.946;6.140;2022-08-20T04:05:29;95408.63;;;19.01;89.09
21838;BME280;11081;45.946;6.140;2022-08-20T04:08:01;95406.50;;;19.03;89.07
21838;BME280;11081;45.946;6.140;2022-08-20T04:10:29;95410.19;;;19.02;89.43
21838;BME280;11081;45.946;6.140;2022-08-20T04:12:58;95408.06;;;19.04;89.63
21838;BME280;11081;45.946;6.140;2022-08-20T04:15:27;95411.25;;;19.06;89.35
21838;BME280;11081;45.946;6.140;2022-08-20T04:17:57;95412.84;;;19.07;89.60
21838;BME280;11081;45.946;6.140;2022-08-20T04:20:26;95421.28;;;19.09;89.91
21838;BME280;11081;45.946;6.140;2022-08-20T04:22:55;95406.22;;;19.09;90.24
21838;BME280;11081;45.946;6.140;2022-08-20T04:25:27;95416.78;;;19.09;90.96
21838;BME280;11081;45.946;6.140;2022-08-20T04:28:05;95409.66;;;19.05;91.32
21838;BME280;11081;45.946;6.140;2022-08-20T04:30:34;95419.19;;;19.01;91.32
21838;BME280;11081;45.946;6.140;2022-08-20T04:33:02;95416.81;;;18.99;91.41
21838;BME280;11081;45.946;6.140;2022-08-20T04:35:30;95419.19;;;19.01;91.66
21838;BME280;11081;45.946;6.140;2022-08-20T04:38:00;95412.84;;;19.02;91.75
21838;BME280;11081;45.946;6.140;2022-08-20T04:40:30;95415.50;;;19.02;92.59
21838;BME280;11081;45.946;6.140;2022-08-20T04:43:16;95418.94;;;18.87;93.10
21838;BME280;11081;45.946;6.140;2022-08-20T04:45:45;95418.94;;;18.67;94.23
21838;BME280;11081;45.946;6.140;2022-08-20T04:48:14;95419.22;;;18.65;95.02
21838;BME280;11081;45.946;6.140;2022-08-20T04:50:43;95422.38;;;18.72;94.37
21838;BME280;11081;45.946;6.140;2022-08-20T04:53:14;95426.09;;;18.81;93.64
21838;BME280;11081;45.946;6.140;2022-08-20T04:55:51;95420.28;;;18.79;93.78
21838;BME280;11081;45.946;6.140;2022-08-20T04:58:22;95428.22;;;18.79;93.80
21838;BME280;11081;45.946;6.140;2022-08-20T05:00:51;95427.13;;;18.65;94.62
21838;BME280;11081;45.946;6.140;2022-08-20T05:03:22;95418.69;;;18.63;94.78
21838;BME280;11081;45.946;6.140;2022-08-20T05:05:51;95420.28;;;18.74;94.32
21838;BME280;11081;45.946;6.140;2022-08-20T05:08:20;95420.78;;;18.81;93.94
21838;BME280;11081;45.946;6.140;2022-08-20T05:10:51;95414.97;;;18.84;93.57
21838;BME280;11081;45.946;6.140;2022-08-20T05:13:39;95426.59;;;18.88;93.45
21838;BME280;11081;45.946;6.140;2022-08-20T05:16:08;95424.75;;;18.94;93.51
21838;BME280;11081;45.946;6.140;2022-08-20T05:18:36;95441.69;;;18.98;92.96
21838;BME280;11081;45.946;6.140;2022-08-20T05:21:05;95435.31;;;18.94;92.04
21838;BME280;11081;45.946;6.140;2022-08-20T05:23:35;95446.69;;;18.95;92.28
21838;BME280;11081;45.946;6.140;2022-08-20T05:26:10;95436.91;;;18.90;92.97
21838;BME280;11081;45.946;6.140;2022-08-20T05:28:39;95441.69;;;18.93;92.81
21838;BME280;11081;45.946;6.140;2022-08-20T05:31:24;95442.50;;;18.99;92.65
21838;BME280;11081;45.946;6.140;2022-08-20T05:33:59;95447.25;;;19.02;92.07
21838;BME280;11081;45.946;6.140;2022-08-20T05:36:27;95450.94;;;19.01;91.72
21838;BME280;11081;45.946;6.140;2022-08-20T05:38:55;95448.81;;;19.03;91.44
21838;BME280;11081;45.946;6.140;2022-08-20T05:41:25;95452.00;;;19.05;91.79
21838;BME280;11081;45.946;6.140;2022-08-20T05:43:56;95453.59;;;19.06;91.86
21838;BME280;11081;45.946;6.140;2022-08-20T05:46:27;95458.34;;;19.09;91.65
21838;BME280;11081;45.946;6.140;2022-08-20T05:48:55;95456.22;;;19.11;91.68
21838;BME280;11081;45.946;6.140;2022-08-20T05:51:25;95460.97;;;19.14;92.23
21838;BME280;11081;45.946;6.140;2022-08-20T05:53:54;95459.94;;;19.10;91.89
21838;BME280;11081;45.946;6.140;2022-08-20T05:56:27;95455.69;;;19.14;92.02
21838;BME280;11081;45.946;6.140;2022-08-20T05:58:58;95453.06;;;19.19;92.08
21838;BME280;11081;45.946;6.140;2022-08-20T06:01:28;95457.28;;;19.25;91.78
21838;BME280;11081;45.946;6.140;2022-08-20T06:03:57;95463.09;;;19.27;92.26
21838;BME280;11081;45.946;6.140;2022-08-20T06:06:43;95465.19;;;19.30;92.49
21838;BME280;11081;45.946;6.140;2022-08-20T06:09:14;95466.25;;;19.34;92.25
21838;BME280;11081;45.946;6.140;2022-08-20T06:11:59;95462.03;;;19.38;92.56
21838;BME280;11081;45.946;6.140;2022-08-20T06:14:28;95461.47;;;19.41;92.33
21838;BME280;11081;45.946;6.140;2022-08-20T06:17:02;95468.63;;;19.46;92.12
21838;BME280;11081;45.946;6.140;2022-08-20T06:19:31;95466.75;;;19.46;92.11
21838;BME280;11081;45.946;6.140;2022-08-20T06:22:00;95470.44;;;19.50;92.29
21838;BME280;11081;45.946;6.140;2022-08-20T06:24:45;95468.31;;;19.53;92.36
21838;BME280;11081;45.946;6.140;2022-08-20T06:27:15;95464.66;;;19.54;92.10
21838;BME280;11081;45.946;6.140;2022-08-20T06:29:43;95472.03;;;19.52;92.15
21838;BME280;11081;45.946;6.140;2022-08-20T06:32:13;95471.00;;;19.47;92.41
21838;BME280;11081;45.946;6.140;2022-08-20T06:34:41;95472.06;;;19.46;92.15
21838;BME280;11081;45.946;6.140;2022-08-20T06:37:19;95477.88;;;19.48;91.87
21838;BME280;11081;45.946;6.140;2022-08-20T06:39:47;95481.03;;;19.50;91.58
21838;BME280;11081;45.946;6.140;2022-08-20T06:42:16;95476.81;;;19.55;90.18
21838;BME280;11081;45.946;6.140;2022-08-20T06:44:47;95476.31;;;19.58;90.60
21838;BME280;11081;45.946;6.140;2022-08-20T06:47:16;95484.78;;;19.60;90.68
21838;BME280;11081;45.946;6.140;2022-08-20T06:49:44;95472.59;;;19.59;89.12
21838;BME280;11081;45.946;6.140;2022-08-20T06:52:13;95479.72;;;19.63;88.28
21838;BME280;11081;45.946;6.140;2022-08-20T06:54:42;95485.28;;;19.67;89.73
21838;BME280;11081;45.946;6.140;2022-08-20T06:57:11;95486.63;;;19.64;90.83
21838;BME280;11081;45.946;6.140;2022-08-20T06:59:40;95486.84;;;19.73;90.13
21838;BME280;11081;45.946;6.140;2022-08-20T07:02:08;95484.72;;;19.80;89.72
21838;BME280;11081;45.946;6.140;2022-08-20T07:04:36;95484.41;;;19.87;88.59
21838;BME280;11081;45.946;6.140;2022-08-20T07:07:04;95491.31;;;19.88;87.84
21838;BME280;11081;45.946;6.140;2022-08-20T07:09:33;95483.63;;;19.86;87.89
21838;BME280;11081;45.946;6.140;2022-08-20T07:12:01;95482.53;;;19.92;87.34
21838;BME280;11081;45.946;6.140;2022-08-20T07:14:29;95493.13;;;19.92;87.09
21838;BME280;11081;45.946;6.140;2022-08-20T07:17:01;95499.53;;;19.86;86.04
21838;BME280;11081;45.946;6.140;2022-08-20T07:19:29;95501.66;;;19.84;86.32
21838;BME280;11081;45.946;6.140;2022-08-20T07:21:57;95496.09;;;19.86;86.27
21838;BME280;11081;45.946;6.140;2022-08-20T07:24:25;95497.94;;;19.85;86.33
21838;BME280;11081;45.946;6.140;2022-08-20T07:26:59;95501.94;;;19.83;87.06
21838;BME280;11081;45.946;6.140;2022-08-20T07:29:48;95500.06;;;19.83;87.05
21838;BME280;11081;45.946;6.140;2022-08-20T07:32:40;95507.75;;;19.85;86.83
21838;BME280;11081;45.946;6.140;2022-08-20T07:35:14;95500.31;;;19.87;86.80
21838;BME280;11081;45.946;6.140;2022-08-20T07:37:45;95497.41;;;19.88;86.31
21838;BME280;11081;45.946;6.140;2022-08-20T07:40:17;95506.41;;;19.87;86.76
21838;BME280;11081;45.946;6.140;2022-08-20T07:42:52;95505.88;;;19.90;86.57
21838;BME280;11081;45.946;6.140;2022-08-20T07:45:21;95506.91;;;19.94;86.82
21838;BME280;11081;45.946;6.140;2022-08-20T07:47:51;95500.03;;;19.93;86.92
21838;BME280;11081;45.946;6.140;2022-08-20T07:50:22;95503.19;;;19.95;87.51
21838;BME280;11081;45.946;6.140;2022-08-20T07:52:51;95510.91;;;19.87;89.08
21838;BME280;11081;45.946;6.140;2022-08-20T07:55:20;95514.69;;;19.65;89.85
21838;BME280;11081;45.946;6.140;2022-08-20T07:57:49;95516.03;;;19.42;90.80
21838;BME280;11081;45.946;6.140;2022-08-20T08:00:19;95516.56;;;19.29;92.53
21838;BME280;11081;45.946;6.140;2022-08-20T08:02:47;95510.75;;;19.02;94.62
21838;BME280;11081;45.946;6.140;2022-08-20T08:05:17;95515.25;;;19.01;95.82
21838;BME280;11081;45.946;6.140;2022-08-20T08:07:45;95512.84;;;19.10;96.58
21838;BME280;11081;45.946;6.140;2022-08-20T08:10:16;95511.28;;;19.19;96.53
21838;BME280;11081;45.946;6.140;2022-08-20T08:12:49;95514.97;;;19.28;97.08
21838;BME280;11081;45.946;6.140;2022-08-20T08:15:21;95517.34;;;19.40;97.09
21838;BME280;11081;45.946;6.140;2022-08-20T08:17:52;95522.91;;;19.54;97.25
21838;BME280;11081;45.946;6.140;2022-08-20T08:20:22;95519.72;;;19.62;96.70
21838;BME280;11081;45.946;6.140;2022-08-20T08:22:50;95515.72;;;19.69;97.40
21838;BME280;11081;45.946;6.140;2022-08-20T08:25:19;95515.44;;;19.81;97.00
21838;BME280;11081;45.946;6.140;2022-08-20T08:27:47;95520.72;;;19.86;95.00
21838;BME280;11081;45.946;6.140;2022-08-20T08:30:16;95517.56;;;19.84;93.99
21838;BME280;11081;45.946;6.140;2022-08-20T08:32:44;95519.13;;;19.85;94.47
21838;BME280;11081;45.946;6.140;2022-08-20T08:35:31;95516.50;;;19.75;94.75
21838;BME280;11081;45.946;6.140;2022-08-20T08:37:59;95519.69;;;19.82;94.80
21838;BME280;11081;45.946;6.140;2022-08-20T08:40:29;95518.56;;;19.93;95.14
21838;BME280;11081;45.946;6.140;2022-08-20T08:43:00;95513.78;;;19.95;94.54
21838;BME280;11081;45.946;6.140;2022-08-20T08:45:38;95518.59;;;19.88;94.67
21838;BME280;11081;45.946;6.140;2022-08-20T08:48:10;95525.97;;;19.96;94.71
21838;BME280;11081;45.946;6.140;2022-08-20T08:50:49;95523.84;;;19.98;93.78
21838;BME280;11081;45.946;6.140;2022-08-20T08:53:24;95520.47;;;19.72;95.99
21838;BME280;11081;45.946;6.140;2022-08-20T08:55:53;95529.25;;;19.47;98.40
21838;BME280;11081;45.946;6.140;2022-08-20T08:58:21;95525.53;;;19.43;99.38
21838;BME280;11081;45.946;6.140;2022-08-20T09:00:49;95531.38;;;19.45;100.00
21838;BME280;11081;45.946;6.140;2022-08-20T09:03:25;95531.38;;;19.30;99.97
21838;BME280;11081;45.946;6.140;2022-08-20T09:06:03;95518.13;;;19.30;100.00
21838;BME280;11081;45.946;6.140;2022-08-20T09:08:40;95522.06;;;19.53;98.97
21838;BME280;11081;45.946;6.140;2022-08-20T09:11:10;95528.19;;;19.64;97.80
21838;BME280;11081;45.946;6.140;2022-08-20T09:13:38;95525.00;;;19.72;98.16
21838;BME280;11081;45.946;6.140;2022-08-20T09:16:06;95535.00;;;19.95;95.96
21838;BME280;11081;45.946;6.140;2022-08-20T09:18:34;95525.41;;;20.09;94.67
21838;BME280;11081;45.946;6.140;2022-08-20T09:21:04;95521.59;;;20.41;94.28
21838;BME280;11081;45.946;6.140;2022-08-20T09:23:33;95520.75;;;20.51;93.96
21838;BME280;11081;45.946;6.140;2022-08-20T09:26:01;95527.84;;;20.60;94.21
21838;BME280;11081;45.946;6.140;2022-08-20T09:28:29;95519.59;;;20.67;94.17
21838;BME280;11081;45.946;6.140;2022-08-20T09:31:00;95523.00;;;20.73;94.10
21838;BME280;11081;45.946;6.140;2022-08-20T09:33:30;95523.00;;;20.73;92.76
21838;BME280;11081;45.946;6.140;2022-08-20T09:35:58;95517.16;;;20.76;92.98
21838;BME280;11081;45.946;6.140;2022-08-20T09:38:27;95512.09;;;21.13;92.95
21838;BME280;11081;45.946;6.140;2022-08-20T09:40:55;95517.31;;;21.57;91.20
21838;BME280;11081;45.946;6.140;2022-08-20T09:43:23;95513.78;;;21.67;88.56
21838;BME280;11081;45.946;6.140;2022-08-20T09:45:52;95509.06;;;21.59;89.05
21838;BME280;11081;45.946;6.140;2022-08-20T09:48:19;95508.75;;;21.66;89.51
21838;BME280;11081;45.946;6.140;2022-08-20T09:50:58;95507.47;;;21.58;88.92
21838;BME280;11081;45.946;6.140;2022-08-20T09:53:27;95510.28;;;21.43;89.21
21838;BME280;11081;45.946;6.140;2022-08-20T09:55:56;95509.38;;;21.28;88.58
21838;BME280;11081;45.946;6.140;2022-08-20T09:58:32;95499.91;;;21.12;88.73
21838;BME280;11081;45.946;6.140;2022-08-20T10:01:06;95501.09;;;20.96;89.94
21838;BME280;11081;45.946;6.140;2022-08-20T10:03:40;95504.91;;;20.85;91.92
21838;BME280;11081;45.946;6.140;2022-08-20T10:06:08;95504.56;;;20.52;93.01
21838;BME280;11081;45.946;6.140;2022-08-20T10:08:38;95506.75;;;20.35;95.08
21838;BME280;11081;45.946;6.140;2022-08-20T10:11:06;95511.00;;;20.31;95.14
21838;BME280;11081;45.946;6.140;2022-08-20T10:13:34;95512.59;;;20.32;95.54
21838;BME280;11081;45.946;6.140;2022-08-20T10:16:02;95501.69;;;20.38;96.52
21838;BME280;11081;45.946;6.140;2022-08-20T10:18:31;95508.78;;;20.53;97.29
21838;BME280;11081;45.946;6.140;2022-08-20T10:20:59;95504.75;;;20.61;95.67
21838;BME280;11081;45.946;6.140;2022-08-20T10:23:27;95503.97;;;20.60;94.58
21838;BME280;11081;45.946;6.140;2022-08-20T10:25:56;95486.88;;;20.77;95.33
21838;BME280;11081;45.946;6.140;2022-08-20T10:28:24;95494.19;;;20.95;95.22
21838;BME280;11081;45.946;6.140;2022-08-20T10:30:52;95493.00;;;21.11;94.06
21838;BME280;11081;45.946;6.140;2022-08-20T10:33:20;95491.84;;;21.27;93.53
21838;BME280;11081;45.946;6.140;2022-08-20T10:35:48;95487.94;;;21.44;93.08
21838;BME280;11081;45.946;6.140;2022-08-20T10:38:20;95472.22;;;21.52;93.19
21838;BME280;11081;45.946;6.140;2022-08-20T10:40:48;95485.44;;;21.57;92.44
21838;BME280;11081;45.946;6.140;2022-08-20T10:43:19;95483.00;;;21.61;91.37
21838;BME280;11081;45.946;6.140;2022-08-20T10:45:47;95478.53;;;21.56;90.66
21838;BME280;11081;45.946;6.140;2022-08-20T10:48:15;95484.06;;;21.60;90.61
21838;BME280;11081;45.946;6.140;2022-08-20T10:50:47;95480.25;;;21.71;89.80
21838;BME280;11081;45.946;6.140;2022-08-20T10:53:15;95471.78;;;21.69;89.38
21838;BME280;11081;45.946;6.140;2022-08-20T10:55:43;95480.69;;;21.78;89.83
21838;BME280;11081;45.946;6.140;2022-08-20T10:58:12;95480.34;;;21.85;89.86
21838;BME280;11081;45.946;6.140;2022-08-20T11:00:41;95475.81;;;21.85;89.81
21838;BME280;11081;45.946;6.140;2022-08-20T11:03:11;95470.06;;;21.78;89.55
21838;BME280;11081;45.946;6.140;2022-08-20T11:05:39;95481.09;;;21.90;88.71
21838;BME280;11081;45.946;6.140;2022-08-20T11:08:07;95480.47;;;21.99;86.85
21838;BME280;11081;45.946;6.140;2022-08-20T11:10:36;95465.53;;;21.79;85.37
21838;BME280;11081;45.946;6.140;2022-08-20T11:13:05;95470.28;;;21.58;85.85
21838;BME280;11081;45.946;6.140;2022-08-20T11:15:36;95466.56;;;21.59;85.61
21838;BME280;11081;45.946;6.140;2022-08-20T11:18:07;95471.78;;;21.69;86.14
21838;BME280;11081;45.946;6.140;2022-08-20T11:20:36;95463.84;;;21.88;83.42
21838;BME280;11081;45.946;6.140;2022-08-20T11:23:04;95462.31;;;22.06;82.72
21838;BME280;11081;45.946;6.140;2022-08-20T11:25:32;95459.13;;;22.09;83.16
21838;BME280;11081;45.946;6.140;2022-08-20T11:28:00;95460.00;;;21.75;84.22
21838;BME280;11081;45.946;6.140;2022-08-20T11:30:31;95463.31;;;21.67;84.52
21838;BME280;11081;45.946;6.140;2022-08-20T11:33:01;95456.38;;;21.90;82.51
21838;BME280;11081;45.946;6.140;2022-08-20T11:35:32;95453.56;;;22.05;81.45
21838;BME280;11081;45.946;6.140;2022-08-20T11:38:15;95451.44;;;22.07;82.45
21838;BME280;11081;45.946;6.140;2022-08-20T11:40:43;95448.47;;;22.09;82.32
21838;BME280;11081;45.946;6.140;2022-08-20T11:43:12;95447.34;;;22.15;81.28
21838;BME280;11081;45.946;6.140;2022-08-20T11:45:42;95452.94;;;22.13;79.73
21838;BME280;11081;45.946;6.140;2022-08-20T11:48:11;95445.47;;;22.34;79.64
21838;BME280;11081;45.946;6.140;2022-08-20T11:50:40;95451.50;;;22.59;78.94
21838;BME280;11081;45.946;6.140;2022-08-20T11:53:08;95436.97;;;22.70;74.95
21838;BME280;11081;45.946;6.140;2022-08-20T11:55:36;95440.19;;;22.67;74.06
21838;BME280;11081;45.946;6.140;2022-08-20T11:58:05;95440.00;;;22.82;73.97
21838;BME280;11081;45.946;6.140;2022-08-20T12:00:33;95437.31;;;23.01;74.42
21838;BME280;11081;45.946;6.140;2022-08-20T12:03:03;95432.81;;;23.15;75.07
21838;BME280;11081;45.946;6.140;2022-08-20T12:05:35;95435.56;;;23.24;73.29
21838;BME280;11081;45.946;6.140;2022-08-20T12:08:05;95426.47;;;23.11;71.52
21838;BME280;11081;45.946;6.140;2022-08-20T12:10:34;95435.34;;;23.06;71.37
21838;BME280;11081;45.946;6.140;2022-08-20T12:13:02;95437.75;;;23.22;71.64
21838;BME280;11081;45.946;6.140;2022-08-20T12:15:30;95435.47;;;23.29;70.03
21838;BME280;11081;45.946;6.140;2022-08-20T12:17:59;95438.16;;;23.29;70.67
21838;BME280;11081;45.946;6.140;2022-08-20T12:20:27;95428.50;;;23.33;68.72
21838;BME280;11081;45.946;6.140;2022-08-20T12:22:55;95431.66;;;23.35;67.81
21838;BME280;11081;45.946;6.140;2022-08-20T12:25:26;95427.50;;;23.29;66.31
21838;BME280;11081;45.946;6.140;2022-08-20T12:27:54;95428.09;;;23.39;66.82
21838;BME280;11081;45.946;6.140;2022-08-20T12:30:23;95424.94;;;23.51;66.03
21838;BME280;11081;45.946;6.140;2022-08-20T12:32:51;95425.06;;;23.73;65.94
21838;BME280;11081;45.946;6.140;2022-08-20T12:35:19;95421.13;;;23.85;65.69
21838;BME280;11081;45.946;6.140;2022-08-20T12:37:47;95420.03;;;23.86;66.34
21838;BME280;11081;45.946;6.140;2022-08-20T12:40:17;95420.75;;;23.78;66.70
21838;BME280;11081;45.946;6.140;2022-08-20T12:42:58;95412.53;;;23.33;68.51
21838;BME280;11081;45.946;6.140;2022-08-20T12:45:26;95408.63;;;23.11;69.93
21838;BME280;11081;45.946;6.140;2022-08-20T12:48:00;95406.38;;;23.19;69.42
21838;BME280;11081;45.946;6.140;2022-08-20T12:50:29;95407.97;;;23.47;70.77
21838;BME280;11081;45.946;6.140;2022-08-20T12:52:58;95410.47;;;23.71;69.81
21838;BME280;11081;45.946;6.140;2022-08-20T12:55:27;95404.66;;;23.83;68.58
21838;BME280;11081;45.946;6.140;2022-08-20T12:57:56;95418.28;;;23.67;68.38
21838;BME280;11081;45.946;6.140;2022-08-20T13:00:30;95414.50;;;23.41;69.58
21838;BME280;11081;45.946;6.140;2022-08-20T13:03:00;95418.03;;;23.36;70.37
21838;BME280;11081;45.946;6.140;2022-08-20T13:05:30;95416.56;;;23.44;70.62
21838;BME280;11081;45.946;6.140;2022-08-20T13:07:58;95412.13;;;23.53;69.79
21838;BME280;11081;45.946;6.140;2022-08-20T13:10:28;95413.66;;;23.59;69.10
21838;BME280;11081;45.946;6.140;2022-08-20T13:12:57;95415.22;;;23.60;68.98
21838;BME280;11081;45.946;6.140;2022-08-20T13:15:30;95417.28;;;23.63;69.13
21838;BME280;11081;45.946;6.140;2022-08-20T13:18:01;95418.63;;;23.47;68.25